createdAt,value
2022-12-08T00:00:10.448Z,3.80
2022-12-08T00:02:42.509Z,3.97
2022-12-08T00:05:29.244Z,3.67
2022-12-08T00:08:15.158Z,3.60
2022-12-08T00:10:49.931Z,3.83
2022-12-08T00:13:18.247Z,3.90
2022-12-08T00:15:46.360Z,4.00
2022-12-08T00:18:16.171Z,4.37
2022-12-08T00:20:44.172Z,4.30
2022-12-08T00:23:12.249Z,3.67
2022-12-08T00:25:40.313Z,3.93
2022-12-08T00:28:08.379Z,3.60
2022-12-08T00:30:36.818Z,3.97
2022-12-08T00:33:04.885Z,3.37
2022-12-08T00:35:38.710Z,3.37
2022-12-08T00:38:12.222Z,3.27
2022-12-08T00:40:45.147Z,3.80
2022-12-08T00:43:13.469Z,3.63
2022-12-08T00:45:41.774Z,4.03
2022-12-08T00:48:11.049Z,3.47
2022-12-08T00:50:40.459Z,3.63
2022-12-08T00:53:08.568Z,4.80
2022-12-08T00:55:36.559Z,3.87
2022-12-08T00:58:04.736Z,4.00
2022-12-08T01:00:32.735Z,3.83
2022-12-08T01:03:00.748Z,4.07
2022-12-08T01:05:28.821Z,3.60
2022-12-08T01:07:58.188Z,3.77
2022-12-08T01:10:26.253Z,3.33
2022-12-08T01:12:54.250Z,3.47
2022-12-08T01:15:22.206Z,3.50
2022-12-08T01:17:50.252Z,4.30
2022-12-08T01:20:19.531Z,3.63
2022-12-08T01:22:50.153Z,3.67
2022-12-08T01:25:19.608Z,2.63
2022-12-08T01:27:47.575Z,3.47
2022-12-08T01:30:15.971Z,4.37
2022-12-08T01:32:44.086Z,4.63
2022-12-08T01:35:12.840Z,4.30
2022-12-08T01:37:41.146Z,4.10
2022-12-08T01:40:10.430Z,3.73
2022-12-08T01:42:40.464Z,3.70
2022-12-08T01:45:15.551Z,3.60
2022-12-08T01:47:48.529Z,3.83
2022-12-08T01:50:20.324Z,3.60
2022-12-08T01:52:54.676Z,3.30
2022-12-08T01:55:27.554Z,3.33
2022-12-08T01:58:01.823Z,3.80
2022-12-08T02:00:30.466Z,3.53
2022-12-08T02:03:00.703Z,3.67
2022-12-08T02:05:31.909Z,3.27
2022-12-08T02:08:04.473Z,3.30
2022-12-08T02:10:36.312Z,3.40
2022-12-08T02:13:07.898Z,3.50
2022-12-08T02:15:42.134Z,3.60
2022-12-08T02:18:25.456Z,4.57
2022-12-08T02:21:01.919Z,3.43
2022-12-08T02:23:38.207Z,3.23
2022-12-08T02:26:50.708Z,3.23
2022-12-08T02:29:37.461Z,3.80
2022-12-08T02:32:23.895Z,4.17
2022-12-08T02:35:03.071Z,3.00
2022-12-08T02:37:34.783Z,2.87
2022-12-08T02:40:08.539Z,3.00
2022-12-08T02:42:41.404Z,3.03
2022-12-08T02:45:16.053Z,3.07
2022-12-08T02:47:45.409Z,2.93
2022-12-08T02:50:16.295Z,4.20
2022-12-08T02:52:46.457Z,2.60
2022-12-08T02:55:27.682Z,2.80
2022-12-08T02:58:35.460Z,3.10
2022-12-08T03:01:18.828Z,3.20
2022-12-08T03:03:53.153Z,2.43
2022-12-08T03:06:30.681Z,3.07
2022-12-08T03:09:05.097Z,2.80
2022-12-08T03:11:39.234Z,3.40
2022-12-08T03:14:11.428Z,2.60
2022-12-08T03:16:46.188Z,3.00
2022-12-08T03:19:20.102Z,2.87
2022-12-08T03:21:54.137Z,2.83
2022-12-08T03:24:24.160Z,3.17
2022-12-08T03:26:56.418Z,2.70
2022-12-08T03:29:25.284Z,3.03
2022-12-08T03:31:56.672Z,2.67
2022-12-08T03:34:29.782Z,2.23
2022-12-08T03:37:06.598Z,3.40
2022-12-08T03:39:34.678Z,2.70
2022-12-08T03:42:02.647Z,2.30
2022-12-08T03:44:30.905Z,2.80
2022-12-08T03:47:00.256Z,2.37
2022-12-08T03:49:28.202Z,2.43
2022-12-08T03:51:57.582Z,2.77
2022-12-08T03:54:27.129Z,2.50
2022-12-08T03:56:55.074Z,2.37
2022-12-08T03:59:23.072Z,2.27
2022-12-08T04:01:51.470Z,2.30
2022-12-08T04:04:19.608Z,2.40
2022-12-08T04:06:58.114Z,2.43
2022-12-08T04:09:27.497Z,2.70
2022-12-08T04:11:55.750Z,2.33
2022-12-08T04:14:23.879Z,2.30
2022-12-08T04:16:51.795Z,2.37
2022-12-08T04:19:19.813Z,2.37
2022-12-08T04:21:51.772Z,2.27
2022-12-08T04:24:19.753Z,2.30
2022-12-08T04:26:49.806Z,2.87
2022-12-08T04:29:18.096Z,2.40
2022-12-08T04:31:46.325Z,2.10
2022-12-08T04:34:14.383Z,2.20
2022-12-08T04:36:43.279Z,2.90
2022-12-08T04:39:11.314Z,2.63
2022-12-08T04:41:39.403Z,2.73
2022-12-08T04:44:09.120Z,2.30
2022-12-08T04:46:43.009Z,2.30
2022-12-08T04:49:11.640Z,2.20
2022-12-08T04:51:39.643Z,2.17
2022-12-08T04:54:11.828Z,2.63
2022-12-08T04:56:39.768Z,2.20
2022-12-08T04:59:09.485Z,2.60
2022-12-08T05:01:37.877Z,2.10
2022-12-08T05:04:06.038Z,2.00
2022-12-08T05:06:33.974Z,2.27
2022-12-08T05:09:07.291Z,1.97
2022-12-08T05:11:35.247Z,1.93
2022-12-08T05:14:03.244Z,1.83
2022-12-08T05:16:32.612Z,2.27
2022-12-08T05:19:01.091Z,2.20
2022-12-08T05:21:29.049Z,1.60
2022-12-08T05:24:06.764Z,2.10
2022-12-08T05:26:35.013Z,1.97
2022-12-08T05:29:03.171Z,2.40
2022-12-08T05:31:32.765Z,2.00
2022-12-08T05:34:03.419Z,1.83
2022-12-08T05:36:31.666Z,2.37
2022-12-08T05:38:59.868Z,2.40
2022-12-08T05:41:28.068Z,1.97
2022-12-08T05:43:56.881Z,2.03
2022-12-08T05:46:29.646Z,2.63
2022-12-08T05:49:00.998Z,2.17
2022-12-08T05:51:29.180Z,2.40
2022-12-08T05:53:58.392Z,2.20
2022-12-08T05:56:26.616Z,2.33
2022-12-08T05:58:55.049Z,2.07
2022-12-08T06:01:24.870Z,2.33
2022-12-08T06:03:53.088Z,2.10
2022-12-08T06:06:22.996Z,2.47
2022-12-08T06:08:51.408Z,2.30
2022-12-08T06:11:20.866Z,2.00
2022-12-08T06:13:48.910Z,1.90
2022-12-08T06:16:17.526Z,2.00
2022-12-08T06:18:45.881Z,2.23
2022-12-08T06:21:16.086Z,2.27
2022-12-08T06:23:45.809Z,1.77
2022-12-08T06:26:16.212Z,2.07
2022-12-08T06:28:45.053Z,2.27
2022-12-08T06:31:15.786Z,2.27
2022-12-08T06:33:43.810Z,1.90
2022-12-08T06:36:13.622Z,2.47
2022-12-08T06:38:43.640Z,2.20
2022-12-08T06:41:14.220Z,2.43
2022-12-08T06:43:43.420Z,2.10
2022-12-08T06:46:14.810Z,1.90
2022-12-08T06:48:42.824Z,2.10
2022-12-08T06:51:12.109Z,1.60
2022-12-08T06:53:40.802Z,1.50
2022-12-08T06:56:10.242Z,1.87
2022-12-08T06:58:39.966Z,2.00
2022-12-08T07:01:09.476Z,1.63
2022-12-08T07:03:38.392Z,1.83
2022-12-08T07:06:07.555Z,2.00
2022-12-08T07:08:36.105Z,1.80
2022-12-08T07:11:08.938Z,1.40
2022-12-08T07:13:36.851Z,1.50
2022-12-08T07:16:09.029Z,1.80
2022-12-08T07:18:37.714Z,1.67
2022-12-08T07:21:07.682Z,1.87
2022-12-08T07:23:36.288Z,1.10
2022-12-08T07:26:05.799Z,1.40
2022-12-08T07:28:34.897Z,1.50
2022-12-08T07:31:03.167Z,1.43
2022-12-08T07:33:33.249Z,1.93
2022-12-08T07:36:03.470Z,1.43
2022-12-08T07:38:32.203Z,1.60
2022-12-08T07:41:02.938Z,1.27
2022-12-08T07:43:31.339Z,2.13
2022-12-08T07:46:00.478Z,1.70
2022-12-08T07:48:29.632Z,1.80
2022-12-08T07:51:03.470Z,1.30
2022-12-08T07:53:32.124Z,1.60
2022-12-08T07:56:00.382Z,1.60
2022-12-08T07:58:28.863Z,2.00
2022-12-08T08:00:57.025Z,1.60
2022-12-08T08:03:25.066Z,1.60
2022-12-08T08:05:53.103Z,1.60
2022-12-08T08:08:22.780Z,1.47
2022-12-08T08:10:50.764Z,1.57
2022-12-08T08:13:18.840Z,1.33
2022-12-08T08:15:46.901Z,1.67
2022-12-08T08:18:16.280Z,1.40
2022-12-08T08:20:44.240Z,1.40
2022-12-08T08:23:12.199Z,1.57
2022-12-08T08:25:41.553Z,1.73
2022-12-08T08:28:09.510Z,1.70
2022-12-08T08:30:37.566Z,1.57
2022-12-08T08:33:05.580Z,1.70
2022-12-08T08:35:34.735Z,1.90
2022-12-08T08:38:02.696Z,2.20
2022-12-08T08:40:30.627Z,1.90
2022-12-08T08:43:01.703Z,1.80
2022-12-08T08:45:31.151Z,1.73
2022-12-08T08:47:59.089Z,1.60
2022-12-08T08:50:30.470Z,1.80
2022-12-08T08:53:00.833Z,1.70
2022-12-08T08:55:28.832Z,1.60
2022-12-08T08:57:56.767Z,1.40
2022-12-08T09:00:26.203Z,1.60
2022-12-08T09:02:54.184Z,1.37
2022-12-08T09:05:22.698Z,1.70
2022-12-08T09:07:50.770Z,1.77
2022-12-08T09:10:19.964Z,1.70
2022-12-08T09:12:47.941Z,1.57
2022-12-08T09:15:16.030Z,1.57
2022-12-08T09:17:45.388Z,1.77
2022-12-08T09:20:13.684Z,1.80
2022-12-08T09:22:41.583Z,1.93
2022-12-08T09:25:10.433Z,1.80
2022-12-08T09:27:38.422Z,1.60
2022-12-08T09:30:07.947Z,1.40
2022-12-08T09:32:37.566Z,1.60
2022-12-08T09:35:07.461Z,1.50
2022-12-08T09:37:35.493Z,1.40
2022-12-08T09:40:03.865Z,1.73
2022-12-08T09:42:42.910Z,1.57
2022-12-08T09:45:15.418Z,1.70
2022-12-08T09:47:47.458Z,1.63
2022-12-08T09:50:26.948Z,1.50
2022-12-08T09:53:01.610Z,1.50
2022-12-08T09:55:42.066Z,1.80
2022-12-08T09:58:20.993Z,2.10
2022-12-08T10:00:49.062Z,1.40
2022-12-08T10:03:18.788Z,1.90
2022-12-08T10:06:01.455Z,2.50
2022-12-08T10:08:38.060Z,1.90
2022-12-08T10:11:12.013Z,2.30
2022-12-08T10:13:49.847Z,1.73
2022-12-08T10:16:29.546Z,1.63
2022-12-08T10:19:09.679Z,1.60
2022-12-08T10:21:41.024Z,1.50
2022-12-08T10:24:16.903Z,1.47
2022-12-08T10:26:45.681Z,1.40
2022-12-08T10:29:14.806Z,1.70
2022-12-08T10:31:43.355Z,1.67
2022-12-08T10:34:17.449Z,1.47
2022-12-08T10:36:52.670Z,1.70
2022-12-08T10:39:35.542Z,2.40
2022-12-08T10:42:09.546Z,2.20
2022-12-08T10:44:54.528Z,1.90
2022-12-08T10:47:24.579Z,1.67
2022-12-08T10:50:18.412Z,1.73
2022-12-08T10:52:55.059Z,1.37
2022-12-08T10:55:23.629Z,1.50
2022-12-08T10:57:52.566Z,2.03
2022-12-08T11:00:24.487Z,1.70
2022-12-08T11:02:59.437Z,2.13
2022-12-08T11:05:33.333Z,1.70
2022-12-08T11:08:03.966Z,2.43
2022-12-08T11:10:37.760Z,1.83
2022-12-08T11:13:15.502Z,1.47
2022-12-08T11:15:47.916Z,1.93
2022-12-08T11:18:29.517Z,1.80
2022-12-08T11:21:01.079Z,2.23
2022-12-08T11:23:31.408Z,2.20
2022-12-08T11:26:06.103Z,2.03
2022-12-08T11:28:34.186Z,2.00
2022-12-08T11:31:08.374Z,1.60
2022-12-08T11:33:36.325Z,1.40
2022-12-08T11:36:13.050Z,1.80
2022-12-08T11:38:44.393Z,1.70
2022-12-08T11:41:16.928Z,1.90
2022-12-08T11:43:54.500Z,1.70
2022-12-08T11:46:24.997Z,2.07
2022-12-08T11:48:57.365Z,1.70
2022-12-08T11:51:33.870Z,1.30
2022-12-08T11:54:18.269Z,1.57
2022-12-08T11:56:49.962Z,1.60
2022-12-08T11:59:27.597Z,1.70
2022-12-08T12:01:56.011Z,1.80
2022-12-08T12:04:30.766Z,1.87
2022-12-08T12:07:26.195Z,1.30
2022-12-08T12:10:17.583Z,1.63
2022-12-08T12:12:59.593Z,1.70
2022-12-08T12:15:47.022Z,1.77
2022-12-08T12:18:28.602Z,1.70
2022-12-08T12:21:00.535Z,1.50
2022-12-08T12:23:39.100Z,1.70
2022-12-08T12:26:17.962Z,1.43
2022-12-08T12:28:52.382Z,1.50
2022-12-08T12:31:25.734Z,1.80
2022-12-08T12:33:56.949Z,1.53
2022-12-08T12:36:25.620Z,1.47
2022-12-08T12:39:04.175Z,1.63
2022-12-08T12:41:43.177Z,1.40
2022-12-08T12:44:40.853Z,1.60
2022-12-08T12:47:14.774Z,1.63
2022-12-08T12:50:16.655Z,1.77
2022-12-08T12:52:48.976Z,1.27
2022-12-08T12:55:29.437Z,1.20
2022-12-08T12:58:00.025Z,1.40
2022-12-08T13:00:29.166Z,1.53
2022-12-08T13:02:58.840Z,1.20
2022-12-08T13:05:29.225Z,1.50
2022-12-08T13:08:00.411Z,1.07
2022-12-08T13:10:32.312Z,1.50
2022-12-08T13:13:07.988Z,1.30
2022-12-08T13:15:39.310Z,1.30
2022-12-08T13:18:09.125Z,1.77
2022-12-08T13:20:44.027Z,1.70
2022-12-08T13:23:30.057Z,1.50
2022-12-08T13:26:19.524Z,1.50
2022-12-08T13:29:23.197Z,1.67
2022-12-08T13:31:54.005Z,1.37
2022-12-08T13:34:31.251Z,1.30
2022-12-08T13:37:19.929Z,1.60
2022-12-08T13:39:52.317Z,1.57
2022-12-08T13:42:26.269Z,1.30
2022-12-08T13:45:48.595Z,1.60
2022-12-08T13:52:59.938Z,1.07
2022-12-08T13:57:03.908Z,1.27
2022-12-08T13:59:32.735Z,1.30
2022-12-08T14:02:05.335Z,1.33
2022-12-08T14:04:54.528Z,1.53
2022-12-08T14:07:23.130Z,1.33
2022-12-08T14:09:52.861Z,1.13
2022-12-08T14:12:26.574Z,1.77
2022-12-08T14:15:04.429Z,1.37
2022-12-08T14:17:35.872Z,1.30
2022-12-08T14:20:13.945Z,1.83
2022-12-08T14:22:42.480Z,1.30
2022-12-08T14:25:15.823Z,1.73
2022-12-08T14:27:44.594Z,1.40
2022-12-08T14:30:22.573Z,1.63
2022-12-08T14:32:55.450Z,1.10
2022-12-08T14:35:26.037Z,1.73
2022-12-08T14:37:58.732Z,1.53
2022-12-08T14:40:32.065Z,1.63
2022-12-08T14:43:15.802Z,1.77
2022-12-08T14:45:53.312Z,1.33
2022-12-08T14:48:27.865Z,1.47
2022-12-08T14:51:02.007Z,1.97
2022-12-08T14:53:38.081Z,1.70
2022-12-08T14:56:12.964Z,1.90
2022-12-08T14:58:40.899Z,1.43
2022-12-08T15:01:10.565Z,1.37
2022-12-08T15:03:42.745Z,1.93
2022-12-08T15:06:14.079Z,1.50
2022-12-08T15:08:58.846Z,1.50
2022-12-08T15:11:35.937Z,1.37
2022-12-08T15:14:06.863Z,1.80
2022-12-08T15:16:40.780Z,1.63
2022-12-08T15:19:28.444Z,1.43
2022-12-08T15:21:59.653Z,1.47
2022-12-08T15:24:30.599Z,1.60
2022-12-08T15:26:58.926Z,1.70
2022-12-08T15:29:28.870Z,1.40
2022-12-08T15:32:02.112Z,2.10
2022-12-08T15:34:32.114Z,1.67
2022-12-08T15:37:00.131Z,1.80
2022-12-08T15:39:33.859Z,1.37
2022-12-08T15:42:02.716Z,1.87
2022-12-08T15:44:32.965Z,1.60
2022-12-08T15:47:01.587Z,2.00
2022-12-08T15:49:31.361Z,1.60
2022-12-08T15:52:10.604Z,1.70
2022-12-08T15:54:39.850Z,1.73
2022-12-08T15:57:20.131Z,2.10
2022-12-08T15:59:54.177Z,2.00
2022-12-08T16:02:23.833Z,1.93
2022-12-08T16:07:46.274Z,1.53
2022-12-08T16:10:18.435Z,2.00
2022-12-08T16:16:00.286Z,1.93
2022-12-08T16:18:30.678Z,1.90
2022-12-08T16:21:17.009Z,2.00
2022-12-08T16:23:48.580Z,1.80
2022-12-08T16:26:44.156Z,1.73
2022-12-08T16:29:08.818Z,1.70
2022-12-08T16:31:36.855Z,1.90
2022-12-08T16:34:05.145Z,1.90
2022-12-08T16:36:37.988Z,1.73
2022-12-08T16:39:06.010Z,2.17
2022-12-08T16:41:51.820Z,1.50
2022-12-08T16:44:23.787Z,2.23
2022-12-08T16:46:52.369Z,1.87
2022-12-08T16:49:21.916Z,1.60
2022-12-08T16:51:51.592Z,1.50
2022-12-08T16:54:19.743Z,2.00
2022-12-08T16:56:47.811Z,2.00
2022-12-08T16:59:15.991Z,2.07
2022-12-08T17:01:43.960Z,2.10
2022-12-08T17:04:30.993Z,2.10
2022-12-08T17:07:01.422Z,1.70
2022-12-08T17:09:31.738Z,1.77
2022-12-08T17:12:03.812Z,1.83
2022-12-08T17:14:34.529Z,2.20
2022-12-08T17:17:02.941Z,2.10
2022-12-08T17:19:31.075Z,1.90
2022-12-08T17:21:59.293Z,2.10
2022-12-08T17:24:30.447Z,1.60
2022-12-08T17:27:03.951Z,2.10
2022-12-08T17:29:32.422Z,1.57
2022-12-08T17:32:00.829Z,1.83
2022-12-08T17:34:28.863Z,1.63
2022-12-08T17:36:56.927Z,2.73
2022-12-08T17:39:25.322Z,1.80
2022-12-08T17:41:54.688Z,1.60
2022-12-08T17:44:24.124Z,2.00
2022-12-08T17:46:53.369Z,1.80
2022-12-08T17:49:25.222Z,1.93
2022-12-08T17:51:55.051Z,1.90
2022-12-08T17:54:23.733Z,1.70
2022-12-08T17:56:52.981Z,2.30
2022-12-08T17:59:23.012Z,2.00
2022-12-08T18:01:53.520Z,1.93
2022-12-08T18:04:22.421Z,1.90
2022-12-08T18:06:50.734Z,2.37
2022-12-08T18:09:18.926Z,1.93
2022-12-08T18:11:50.206Z,1.90
2022-12-08T18:14:18.574Z,1.60
2022-12-08T18:16:49.398Z,2.27
2022-12-08T18:19:17.523Z,2.30
2022-12-08T18:21:45.529Z,1.77
2022-12-08T18:24:19.227Z,2.23
2022-12-08T18:26:47.355Z,1.70
2022-12-08T18:29:15.738Z,2.03
2022-12-08T18:31:43.759Z,1.83
2022-12-08T18:34:13.382Z,1.67
2022-12-08T18:36:41.461Z,1.60
2022-12-08T18:39:22.057Z,1.70
2022-12-08T18:41:50.236Z,2.00
2022-12-08T18:44:19.951Z,2.03
2022-12-08T18:46:48.094Z,1.80
2022-12-08T18:49:19.956Z,1.93
2022-12-08T18:51:49.252Z,1.80
2022-12-08T18:54:50.039Z,2.00
2022-12-08T18:57:17.432Z,1.57
2022-12-08T18:59:46.483Z,1.90
2022-12-08T19:02:14.627Z,2.40
2022-12-08T19:04:45.715Z,2.03
2022-12-08T19:07:14.165Z,1.97
2022-12-08T19:09:48.822Z,1.87
2022-12-08T19:12:23.701Z,2.13
2022-12-08T19:14:51.927Z,1.90
2022-12-08T19:17:19.927Z,1.87
2022-12-08T19:19:49.435Z,2.20
2022-12-08T19:22:17.485Z,1.87
2022-12-08T19:24:58.103Z,1.80
2022-12-08T19:27:28.127Z,1.70
2022-12-08T19:29:56.924Z,1.87
2022-12-08T19:32:24.945Z,2.00
2022-12-08T19:34:56.588Z,1.87
2022-12-08T19:37:24.652Z,2.07
2022-12-08T19:40:10.373Z,1.60
2022-12-08T19:42:55.927Z,1.80
2022-12-08T19:45:25.809Z,1.80
2022-12-08T19:47:53.912Z,1.90
2022-12-08T19:50:39.086Z,2.00
2022-12-08T19:53:10.281Z,1.80
2022-12-08T19:55:38.840Z,1.90
2022-12-08T19:58:08.135Z,2.20
2022-12-08T20:00:37.108Z,1.87
2022-12-08T20:03:05.926Z,2.20
2022-12-08T20:05:37.095Z,2.00
2022-12-08T20:08:05.597Z,2.27
2022-12-08T20:10:36.676Z,2.13
2022-12-08T20:13:23.215Z,2.30
2022-12-08T20:15:51.511Z,2.00
2022-12-08T20:18:20.136Z,2.23
2022-12-08T20:20:49.943Z,2.13
2022-12-08T20:23:18.469Z,1.80
2022-12-08T20:25:48.034Z,2.00
2022-12-08T20:28:16.286Z,2.40
2022-12-08T20:30:46.959Z,1.77
2022-12-08T20:33:19.491Z,1.87
2022-12-08T20:35:59.275Z,2.00
2022-12-08T20:38:27.633Z,2.30
2022-12-08T20:40:55.626Z,2.40
2022-12-08T20:43:31.892Z,2.63
2022-12-08T20:46:01.569Z,2.47
2022-12-08T20:48:29.739Z,2.33
2022-12-08T20:50:59.501Z,2.10
2022-12-08T20:53:28.215Z,2.60
2022-12-08T20:55:56.892Z,2.73
2022-12-08T20:58:31.418Z,3.20
2022-12-08T21:00:59.672Z,2.37
2022-12-08T21:03:27.723Z,2.43
2022-12-08T21:05:56.200Z,2.20
2022-12-08T21:08:26.062Z,2.33
2022-12-08T21:10:55.486Z,2.43
2022-12-08T21:13:23.577Z,2.30
2022-12-08T21:15:51.645Z,1.90
2022-12-08T21:18:19.980Z,2.30
2022-12-08T21:20:48.781Z,2.20
2022-12-08T21:23:17.240Z,2.40
2022-12-08T21:25:48.550Z,2.13
2022-12-08T21:28:16.948Z,2.30
2022-12-08T21:30:45.030Z,2.10
2022-12-08T21:33:13.544Z,2.20
2022-12-08T21:35:43.446Z,2.43
2022-12-08T21:38:12.076Z,2.10
2022-12-08T21:40:40.273Z,2.20
2022-12-08T21:43:10.404Z,2.10
2022-12-08T21:45:39.745Z,2.53
2022-12-08T21:48:11.641Z,2.30
2022-12-08T21:50:40.403Z,2.00
2022-12-08T21:53:08.675Z,2.30
2022-12-08T21:55:36.904Z,2.50
2022-12-08T21:58:05.601Z,2.50
2022-12-08T22:00:35.191Z,2.60
2022-12-08T22:03:03.768Z,2.30
2022-12-08T22:05:32.469Z,2.20
2022-12-08T22:08:00.736Z,2.30
2022-12-08T22:10:28.980Z,2.50
2022-12-08T22:12:57.145Z,2.43
2022-12-08T22:15:26.169Z,2.57
2022-12-08T22:17:55.827Z,2.33
2022-12-08T22:20:26.023Z,2.20
2022-12-08T22:22:54.157Z,2.47
2022-12-08T22:25:22.244Z,2.60
2022-12-08T22:27:50.273Z,2.50
2022-12-08T22:30:18.262Z,2.33
2022-12-08T22:32:46.712Z,2.37
2022-12-08T22:35:16.832Z,2.40
2022-12-08T22:37:44.855Z,2.40
2022-12-08T22:40:16.035Z,2.30
2022-12-08T22:42:44.223Z,2.13
2022-12-08T22:45:13.612Z,2.27
2022-12-08T22:47:41.775Z,2.40
2022-12-08T22:50:10.634Z,2.37
2022-12-08T22:52:40.269Z,2.20
2022-12-08T22:55:10.240Z,2.03
2022-12-08T22:57:38.292Z,2.40
2022-12-08T23:00:08.308Z,1.67
2022-12-08T23:02:38.301Z,2.00
2022-12-08T23:05:07.172Z,2.60
2022-12-08T23:07:35.284Z,1.77
2022-12-08T23:10:05.834Z,2.17
2022-12-08T23:12:34.418Z,2.10
2022-12-08T23:15:03.466Z,2.07
2022-12-08T23:17:31.568Z,1.73
2022-12-08T23:19:59.768Z,2.27
2022-12-08T23:22:27.914Z,2.10
2022-12-08T23:24:56.571Z,2.23
2022-12-08T23:27:25.942Z,1.97
2022-12-08T23:29:54.198Z,1.93
2022-12-08T23:32:22.459Z,2.40
2022-12-08T23:34:50.783Z,2.20
2022-12-08T23:37:18.892Z,2.00
2022-12-08T23:39:46.931Z,2.03
2022-12-08T23:42:14.909Z,1.90
2022-12-08T23:44:45.893Z,2.40
2022-12-08T23:47:14.585Z,1.67
2022-12-08T23:49:42.534Z,2.20
2022-12-08T23:52:14.255Z,2.00
2022-12-08T23:54:42.350Z,2.23
2022-12-08T23:57:10.764Z,1.90
2022-12-08T23:59:39.124Z,1.97
